Ronks, Pennsylvania
Current Conditions -  °F | °C
As of 11:53 AM on Tuesday 27 Jan 2015 (Local Time) from KLNS Reporting Station
Broken Clouds Broken Clouds  
Wind Chill: 19°   Ceiling: 6500
Heat Index: 28°   Visibility: 10mi
Dew Point: 15°   Wind: 9mph
Humidity: 58%   Direction: 340°NNW
Pressure: 29.79"   Gusts: 21mph
Location:  40.03°N, 76.17°W
Report Text: KLNS 271653Z 34008G18KT 10SM BKN065 BKN085 M02/M09 A2979 RMK AO2 UPB1559E03 SLP093 P0000 T10221094
Loading
Personal Weather Stations






























Interactive Weather Map New forecast layout! Learn more

10-Day Weather Forecast

Advertisements
Track Severe Weather on mobile